createdAt,value
2018-12-23T00:03:56.442Z,11.83
2018-12-23T00:08:57.274Z,10.33
2018-12-23T00:13:58.137Z,8.30
2018-12-23T00:18:58.936Z,6.57
2018-12-23T00:23:59.783Z,9.80
2018-12-23T00:29:00.643Z,6.53
2018-12-23T00:34:02.610Z,11.30
2018-12-23T00:39:04.813Z,7.73
2018-12-23T00:44:05.757Z,9.77
2018-12-23T00:49:06.584Z,11.47
2018-12-23T00:54:07.637Z,12.03
2018-12-23T00:59:15.635Z,11.73
2018-12-23T01:04:17.172Z,10.75
2018-12-23T01:09:21.463Z,16.63
2018-12-23T01:14:23.644Z,12.43
2018-12-23T01:19:24.714Z,12.13
2018-12-23T01:24:31.451Z,10.30
2018-12-23T01:29:32.365Z,9.53
2018-12-23T01:34:37.164Z,11.47
2018-12-23T01:39:37.535Z,12.13
2018-12-23T01:44:39.029Z,15.07
2018-12-23T01:49:40.182Z,7.53
2018-12-23T01:54:41.006Z,9.30
2018-12-23T01:59:43.255Z,8.70
2018-12-23T02:04:44.467Z,12.13
2018-12-23T02:09:45.835Z,15.50
2018-12-23T02:14:46.781Z,8.60
2018-12-23T02:19:47.862Z,10.50
2018-12-23T02:24:48.907Z,12.20
2018-12-23T02:29:50.756Z,10.07
2018-12-23T02:34:51.780Z,9.80
2018-12-23T02:39:53.318Z,8.47
2018-12-23T02:44:54.382Z,10.17
2018-12-23T02:49:55.163Z,11.73
2018-12-23T02:54:55.971Z,12.07
2018-12-23T02:59:56.732Z,10.93
2018-12-23T03:04:57.643Z,8.10
2018-12-23T03:09:58.407Z,9.83
2018-12-23T03:14:59.089Z,9.53
2018-12-23T03:19:59.860Z,10.63
2018-12-23T03:25:01.736Z,10.77
2018-12-23T03:30:03.827Z,9.57
2018-12-23T03:35:04.999Z,11.40
2018-12-23T03:40:05.803Z,12.23
2018-12-23T03:45:06.718Z,9.30
2018-12-23T03:50:07.766Z,14.50
2018-12-23T03:55:08.562Z,17.47
2018-12-23T04:00:09.876Z,13.23
2018-12-23T04:05:11.478Z,15.10
2018-12-23T04:10:12.347Z,17.37
2018-12-23T04:15:13.113Z,13.50
2018-12-23T04:20:13.915Z,17.37
2018-12-23T04:25:15.064Z,12.63
2018-12-23T04:30:15.954Z,8.27
2018-12-23T04:35:16.725Z,15.73
2018-12-23T04:40:17.481Z,19.13
2018-12-23T04:45:18.308Z,13.70
2018-12-23T04:50:19.141Z,16.17
2018-12-23T04:55:20.070Z,19.33
2018-12-23T05:00:20.901Z,11.83
2018-12-23T05:05:21.757Z,11.80
2018-12-23T05:10:22.596Z,15.57
2018-12-23T05:15:24.283Z,16.80
2018-12-23T05:20:25.145Z,15.87
2018-12-23T05:31:17.467Z,16.83
2018-12-23T05:36:18.639Z,13.70
2018-12-23T05:41:21.630Z,10.63
2018-12-23T05:46:22.686Z,19.50
2018-12-23T05:51:23.861Z,16.33
2018-12-23T05:56:24.931Z,12.87
2018-12-23T06:01:26.311Z,12.97
2018-12-23T06:06:27.466Z,12.17
2018-12-23T06:11:28.308Z,11.37
2018-12-23T06:16:29.444Z,15.17
2018-12-23T06:21:30.495Z,10.13
2018-12-23T06:26:31.745Z,8.57
2018-12-23T06:31:32.826Z,12.23
2018-12-23T06:36:33.824Z,9.93
2018-12-23T06:41:35.066Z,13.63
2018-12-23T06:46:36.243Z,10.53
2018-12-23T06:51:38.970Z,10.83
2018-12-23T06:56:40.335Z,11.07
2018-12-23T07:01:41.187Z,12.07
2018-12-23T07:06:42.350Z,10.17
2018-12-23T07:11:43.544Z,11.73
2018-12-23T07:16:44.924Z,8.03
2018-12-23T07:21:46.213Z,6.47
2018-12-23T07:26:47.488Z,10.83
2018-12-23T07:31:48.806Z,7.17
2018-12-23T07:36:52.657Z,5.47
2018-12-23T07:41:53.809Z,5.57
2018-12-23T07:46:59.496Z,12.97
2018-12-23T07:52:02.243Z,9.83
2018-12-23T07:57:03.439Z,9.37
2018-12-23T08:02:05.960Z,5.70
2018-12-23T08:07:08.326Z,8.30
2018-12-23T08:12:11.597Z,6.17
2018-12-23T08:17:12.349Z,8.80
2018-12-23T08:22:13.536Z,9.83
2018-12-23T08:27:16.340Z,7.03
2018-12-23T08:32:17.591Z,8.47
2018-12-23T08:37:18.788Z,10.43
2018-12-23T08:42:20.189Z,6.87
2018-12-23T08:47:21.486Z,9.47
2018-12-23T08:52:22.580Z,6.93
2018-12-23T08:57:23.566Z,7.87
2018-12-23T09:02:24.851Z,8.07
2018-12-23T09:07:26.207Z,12.97
2018-12-23T09:12:27.420Z,13.10
2018-12-23T09:17:28.382Z,9.37
2018-12-23T09:22:31.586Z,5.77
2018-12-23T09:27:32.613Z,6.50
2018-12-23T09:32:33.921Z,10.77
2018-12-23T09:37:34.811Z,6.93
2018-12-23T09:42:36.021Z,7.20
2018-12-23T09:47:37.015Z,12.47
2018-12-23T09:52:38.422Z,6.60
2018-12-23T09:57:40.044Z,12.83
2018-12-23T10:02:42.309Z,10.17
2018-12-23T10:07:43.219Z,14.77
2018-12-23T10:12:44.352Z,9.23
2018-12-23T10:17:45.655Z,10.80
2018-12-23T10:22:48.655Z,8.60
2018-12-23T10:28:07.850Z,10.10
2018-12-23T10:33:08.777Z,9.27
2018-12-23T10:38:09.714Z,14.50
2018-12-23T10:43:12.212Z,10.43
2018-12-23T10:48:13.889Z,14.07
2018-12-23T10:53:16.501Z,10.77
2018-12-23T10:58:17.555Z,16.47
2018-12-23T11:03:18.910Z,12.30
2018-12-23T11:08:26.864Z,12.50
2018-12-23T11:13:35.324Z,13.60
2018-12-23T11:18:36.251Z,12.30
2018-12-23T11:23:53.113Z,8.03
2018-12-23T11:28:51.663Z,9.93
2018-12-23T11:33:52.760Z,10.57
2018-12-23T11:38:54.127Z,8.87
2018-12-23T11:43:55.349Z,14.47
2018-12-23T11:48:56.780Z,11.53
2018-12-23T11:53:57.878Z,9.77
2018-12-23T11:58:59.376Z,9.13
2018-12-23T12:04:00.577Z,9.93
2018-12-23T12:09:06.961Z,11.40
2018-12-23T12:14:04.569Z,9.63
2018-12-23T12:19:05.700Z,6.37
2018-12-23T12:24:06.778Z,9.13
2018-12-23T12:29:07.874Z,9.40
2018-12-23T12:34:09.001Z,5.83
2018-12-23T12:39:10.083Z,6.37
2018-12-23T12:44:11.087Z,9.10
2018-12-23T12:49:13.310Z,9.63
2018-12-23T12:54:14.548Z,7.83
2018-12-23T12:59:15.456Z,5.70
2018-12-23T13:04:16.672Z,12.63
2018-12-23T13:09:17.487Z,16.50
2018-12-23T13:14:18.819Z,12.37
2018-12-23T13:19:20.250Z,11.93
2018-12-23T13:24:21.131Z,10.33
2018-12-23T13:29:22.114Z,9.93
2018-12-23T13:34:23.729Z,13.73
2018-12-23T13:39:25.117Z,11.80
2018-12-23T13:44:41.585Z,9.70
2018-12-23T13:50:09.057Z,10.67
2018-12-23T13:55:35.298Z,8.83
2018-12-23T14:01:06.014Z,12.00
2018-12-23T14:06:08.462Z,8.53
2018-12-23T14:16:50.978Z,9.03
2018-12-23T14:21:52.259Z,7.03
2018-12-23T14:26:53.284Z,6.77
2018-12-23T14:31:54.377Z,9.30
2018-12-23T14:36:55.208Z,6.63
2018-12-23T14:41:56.275Z,7.03
2018-12-23T14:47:11.198Z,6.13
2018-12-23T14:52:13.339Z,6.63
2018-12-23T14:57:14.337Z,4.50
2018-12-23T15:02:15.588Z,6.23
2018-12-23T15:07:17.160Z,4.53
2018-12-23T15:12:18.140Z,3.77
2018-12-23T15:17:24.351Z,7.50
2018-12-23T15:22:26.437Z,5.93
2018-12-23T15:27:27.518Z,2.77
2018-12-23T15:32:28.664Z,3.73
2018-12-23T15:46:23.336Z,2.07
2018-12-23T15:48:17.725Z,7.10
2018-12-23T15:53:18.761Z,5.73
2018-12-23T15:58:19.600Z,4.00
2018-12-23T16:03:20.440Z,4.10
2018-12-23T16:13:50.506Z,3.73
2018-12-23T16:18:51.632Z,4.30
2018-12-23T16:23:52.597Z,3.97
2018-12-23T16:29:00.467Z,18.80
2018-12-23T16:34:01.618Z,6.97
2018-12-23T16:39:05.481Z,5.03
2018-12-23T16:44:07.035Z,6.53
2018-12-23T16:49:08.103Z,12.80
2018-12-23T16:54:09.337Z,22.17
2018-12-23T16:59:10.527Z,24.33
2018-12-23T17:04:45.091Z,29.17
2018-12-23T17:09:46.259Z,18.33
2018-12-23T17:14:47.527Z,12.40
2018-12-23T17:19:48.615Z,5.70
2018-12-23T17:24:50.332Z,5.77
2018-12-23T17:29:56.291Z,3.93
2018-12-23T17:34:57.377Z,5.47
2018-12-23T17:39:58.438Z,4.73
2018-12-23T17:44:59.237Z,4.70
2018-12-23T17:50:04.303Z,5.37
2018-12-23T17:55:21.654Z,6.60
2018-12-23T18:00:22.737Z,3.80
2018-12-23T18:05:30.198Z,1.53
2018-12-23T18:10:39.208Z,1.73
2018-12-23T18:15:48.877Z,2.80
2018-12-23T18:20:54.117Z,1.77
2018-12-23T18:25:55.758Z,1.50
2018-12-23T18:30:59.792Z,0.30
2018-12-23T18:36:00.998Z,0.30
2018-12-23T18:41:13.683Z,0.20
2018-12-23T18:46:32.792Z,0.20
2018-12-23T18:56:57.503Z,0.20
2018-12-23T19:01:59.041Z,0.20
2018-12-23T19:07:15.555Z,0.30
2018-12-23T19:12:53.705Z,0.17
2018-12-23T19:18:03.704Z,0.10
2018-12-23T19:23:29.679Z,0.10
2018-12-23T19:28:42.574Z,0.10
2018-12-23T19:33:56.747Z,0.10
2018-12-23T19:39:18.981Z,0.10
2018-12-23T19:44:27.140Z,0.10
2018-12-23T19:49:51.674Z,0.20
2018-12-23T19:55:03.751Z,0.03
2018-12-23T20:00:40.768Z,0.20
2018-12-23T20:06:02.323Z,0.10
2018-12-23T20:11:22.331Z,0.40
2018-12-23T20:16:33.916Z,0.20
2018-12-23T20:22:02.127Z,0.20
2018-12-23T20:27:29.708Z,0.30
2018-12-23T20:32:34.552Z,0.20
2018-12-23T20:37:40.537Z,0.70
2018-12-23T20:43:08.592Z,0.80
2018-12-23T20:48:36.846Z,0.40
2018-12-23T20:53:48.566Z,0.20
2018-12-23T20:59:03.854Z,0.27
2018-12-23T21:04:23.157Z,0.87
2018-12-23T21:09:49.270Z,0.70
2018-12-23T21:15:18.032Z,1.10
2018-12-23T21:26:23.327Z,1.53
2018-12-23T21:31:49.646Z,1.00
2018-12-23T21:37:01.189Z,4.00
2018-12-23T21:42:12.347Z,9.17
2018-12-23T21:47:36.813Z,10.17
2018-12-23T21:52:50.883Z,6.03
2018-12-23T21:58:02.394Z,1.03
2018-12-23T22:03:29.941Z,0.23
2018-12-23T22:08:46.645Z,0.30
2018-12-23T22:13:47.916Z,0.40
2018-12-23T22:20:12.439Z,0.70
2018-12-23T22:24:54.216Z,2.50
2018-12-23T22:29:55.335Z,2.60
2018-12-23T22:34:56.355Z,5.37
2018-12-23T22:39:57.279Z,0.80
2018-12-23T22:44:58.390Z,0.40
2018-12-23T22:49:59.591Z,0.10
2018-12-23T22:55:00.477Z,0.40
2018-12-23T23:00:01.656Z,0.40
2018-12-23T23:05:52.309Z,0.83
2018-12-23T23:10:49.497Z,0.83
2018-12-23T23:15:50.579Z,0.57
2018-12-23T23:20:51.618Z,0.20
2018-12-23T23:25:52.413Z,0.30
2018-12-23T23:30:53.484Z,0.10
2018-12-23T23:35:54.573Z,0.20
2018-12-23T23:40:55.441Z,0.60
2018-12-23T23:45:56.289Z,0.20
2018-12-23T23:50:57.167Z,0.30
2018-12-23T23:55:59.130Z,0.10
